Time;durP1;ratioP1;P1;durP2;ratioP2;P2;SDS_P1;SDS_P2;PMS_P1;PMS_P2;Temp;Humidity;BMP_temperature;BMP_pressure;BME280_temperature;BME280_humidity;BME280_pressure;Samples;Min_cycle;Max_cycle;Signal;HPM_P1;HPM_P2
2021/08/20 00:01:13;;;;;;;4.13;1.50;;;;;;;;;;5127647;27;20368;-72
2021/08/20 00:03:58;;;;;;;4.55;1.85;;;;;;;;;;5136024;27;20035;-72
2021/08/20 00:06:42;;;;;;;2.92;1.40;;;;;;;;;;5120499;27;20031;-72
2021/08/20 00:09:27;;;;;;;3.15;1.67;;;;;;;;;;5090732;28;20039;-71
2021/08/20 00:12:12;;;;;;;7.30;1.73;;;;;;;;;;5125608;27;20035;-72
2021/08/20 00:14:56;;;;;;;5.35;1.52;;;;;;;;;;5135902;27;20375;-72
2021/08/20 00:17:42;;;;;;;4.53;1.85;;;;;;;;;;5134775;27;20035;-71
2021/08/20 00:20:26;;;;;;;3.63;1.25;;;;;;;;;;5131017;27;20373;-71
2021/08/20 00:23:10;;;;;;;3.92;1.63;;;;;;;;;;5099608;28;20490;-71
2021/08/20 00:25:54;;;;;;;4.10;1.70;;;;;;;;;;5115386;27;20035;-71
2021/08/20 00:28:39;;;;;;;6.22;1.45;;;;;;;;;;5134063;27;20039;-72
2021/08/20 00:31:23;;;;;;;2.95;1.50;;;;;;;;;;5135281;27;20035;-72
2021/08/20 00:34:08;;;;;;;6.50;1.58;;;;;;;;;;5135354;27;20035;-71
2021/08/20 00:36:52;;;;;;;3.30;1.45;;;;;;;;;;5117802;27;20047;-71
2021/08/20 00:39:39;;;;;;;2.83;1.58;;;;;;;;;;5122025;27;20039;-72
2021/08/20 00:42:23;;;;;;;3.45;1.42;;;;;;;;;;5134972;27;20035;-71
2021/08/20 00:45:08;;;;;;;19.10;4.45;;;;;;;;;;5135150;27;20040;-71
2021/08/20 00:47:53;;;;;;;1.80;1.20;;;;;;;;;;5118858;27;20506;-71
2021/08/20 00:50:38;;;;;;;4.20;1.80;;;;;;;;;;5085200;28;20040;-71
2021/08/20 00:53:22;;;;;;;2.80;1.15;;;;;;;;;;5099199;28;20032;-72
2021/08/20 00:56:08;;;;;;;2.20;1.38;;;;;;;;;;5101385;27;20035;-71
2021/08/20 00:58:52;;;;;;;3.17;1.75;;;;;;;;;;5127233;27;20039;-71
2021/08/20 01:01:37;;;;;;;;;;;;;;;;;;5114980;27;20036;-72
2021/08/20 01:04:21;;;;;;;2.47;1.50;;;;;;;;;;5122185;27;19960;-72
2021/08/20 01:07:06;;;;;;;2.28;1.30;;;;;;;;;;5133385;27;20031;-72
2021/08/20 01:09:51;;;;;;;1.83;1.05;;;;;;;;;;5105031;28;20047;-72
2021/08/20 01:12:36;;;;;;;4.28;1.30;;;;;;;;;;5100990;28;20032;-72
2021/08/20 01:15:21;;;;;;;3.72;1.48;;;;;;;;;;5100190;28;20373;-71
2021/08/20 01:18:09;;;;;;;1.85;1.33;;;;;;;;;;5117707;27;20399;-72
2021/08/20 01:20:55;;;;;;;2.22;1.55;;;;;;;;;;5101988;28;20364;-72
2021/08/20 01:23:47;;;;;;;4.15;1.40;;;;;;;;;;5089617;27;20027;-72
2021/08/20 01:26:33;;;;;;;2.58;1.65;;;;;;;;;;5094317;28;20055;-71
2021/08/20 01:29:17;;;;;;;3.88;1.52;;;;;;;;;;5110954;27;20035;-72
2021/08/20 01:32:03;;;;;;;3.08;1.42;;;;;;;;;;5116989;27;20035;-72
2021/08/20 01:34:47;;;;;;;5.20;1.90;;;;;;;;;;5104158;27;20480;-72
2021/08/20 01:37:33;;;;;;;1.88;1.30;;;;;;;;;;5112623;27;20039;-72
2021/08/20 01:40:21;;;;;;;4.47;1.67;;;;;;;;;;5105634;27;20028;-71
2021/08/20 01:43:05;;;;;;;2.92;1.75;;;;;;;;;;5099670;28;20035;-72
2021/08/20 01:45:50;;;;;;;2.28;1.52;;;;;;;;;;5105256;27;20795;-72
2021/08/20 01:48:42;;;;;;;3.88;1.30;;;;;;;;;;5120056;27;20572;-72
2021/08/20 01:51:27;;;;;;;6.13;1.77;;;;;;;;;;5099795;28;20491;-71
2021/08/20 01:54:12;;;;;;;3.47;1.80;;;;;;;;;;5109635;27;20479;-71
2021/08/20 01:56:56;;;;;;;2.08;1.40;;;;;;;;;;5119579;27;20031;-72
2021/08/20 01:59:42;;;;;;;2.10;1.30;;;;;;;;;;5119810;27;20035;-71
2021/08/20 02:02:30;;;;;;;3.47;1.60;;;;;;;;;;5121451;27;20032;-72
2021/08/20 02:05:14;;;;;;;;;;;;;;;;;;5121823;27;20039;-72
2021/08/20 02:07:59;;;;;;;5.35;3.00;;;;;;;;;;5103286;28;19914;-72
2021/08/20 02:10:45;;;;;;;7.50;1.80;;;;;;;;;;5126742;27;20039;-72
2021/08/20 02:13:30;;;;;;;2.67;1.30;;;;;;;;;;5133348;27;20379;-72
2021/08/20 02:16:19;;;;;;;3.65;1.90;;;;;;;;;;5108529;28;20039;-72
2021/08/20 02:19:04;;;;;;;4.57;1.42;;;;;;;;;;5089735;28;20043;-71
2021/08/20 02:21:48;;;;;;;2.70;1.25;;;;;;;;;;5107010;27;20031;-72
2021/08/20 02:24:42;;;;;;;6.33;1.43;;;;;;;;;;5119226;27;20031;-72
2021/08/20 02:27:26;;;;;;;2.78;1.20;;;;;;;;;;5098841;27;20039;-72
2021/08/20 02:30:16;;;;;;;3.10;1.38;;;;;;;;;;5100454;27;20483;-72
2021/08/20 02:33:06;;;;;;;5.25;1.77;;;;;;;;;;5098276;28;20027;-72
2021/08/20 02:35:53;;;;;;;7.00;1.70;;;;;;;;;;5101651;28;20384;-71
2021/08/20 02:38:38;;;;;;;5.40;1.65;;;;;;;;;;5111506;27;20494;-72
2021/08/20 02:41:25;;;;;;;4.43;1.52;;;;;;;;;;5117817;27;20027;-72
2021/08/20 02:44:10;;;;;;;3.53;1.30;;;;;;;;;;5108496;27;20035;-71
2021/08/20 02:46:55;;;;;;;6.75;1.50;;;;;;;;;;5120211;27;20031;-72
2021/08/20 02:49:40;;;;;;;3.92;1.20;;;;;;;;;;5096489;28;20044;-72
2021/08/20 02:52:30;;;;;;;4.53;1.67;;;;;;;;;;5119536;27;20039;-72
2021/08/20 02:55:15;;;;;;;2.63;1.48;;;;;;;;;;5121003;28;20035;-72
2021/08/20 02:58:02;;;;;;;3.92;1.90;;;;;;;;;;5112217;28;20398;-72
2021/08/20 03:00:52;;;;;;;6.07;1.80;;;;;;;;;;5101401;28;20036;-72
2021/08/20 03:03:37;;;;;;;3.70;1.67;;;;;;;;;;5096931;28;20036;-72
2021/08/20 03:06:29;;;;;;;1.52;1.33;;;;;;;;;;5098364;28;20424;-72
2021/08/20 03:09:15;;;;;;;2.67;1.35;;;;;;;;;;5102535;28;20040;-71
2021/08/20 03:12:00;;;;;;;3.80;1.73;;;;;;;;;;5108384;28;20039;-71
2021/08/20 03:14:44;;;;;;;3.92;1.73;;;;;;;;;;5104089;28;20047;-72
2021/08/20 03:17:28;;;;;;;2.25;1.17;;;;;;;;;;5131798;28;20031;-71
2021/08/20 03:20:13;;;;;;;3.03;1.27;;;;;;;;;;5113278;28;20035;-72
2021/08/20 03:22:57;;;;;;;2.78;1.52;;;;;;;;;;5132456;28;20039;-72
2021/08/20 03:25:42;;;;;;;4.22;1.48;;;;;;;;;;5116732;28;20031;-72
2021/08/20 03:28:27;;;;;;;2.75;1.40;;;;;;;;;;5105801;28;20039;-72
2021/08/20 03:31:16;;;;;;;2.45;1.60;;;;;;;;;;5097698;28;20044;-72
2021/08/20 03:34:01;;;;;;;1.65;1.00;;;;;;;;;;5096792;28;20383;-71
2021/08/20 03:36:46;;;;;;;3.67;1.77;;;;;;;;;;5120722;28;20043;-71
2021/08/20 03:39:48;;;;;;;4.65;1.55;;;;;;;;;;5114973;28;21467;-72
2021/08/20 03:42:37;;;;;;;3.05;1.40;;;;;;;;;;5118167;28;20035;-72
2021/08/20 03:45:46;;;;;;;1.50;1.15;;;;;;;;;;5112815;28;20024;-72
2021/08/20 03:48:44;;;;;;;4.78;1.70;;;;;;;;;;5101895;28;20039;-72
2021/08/20 03:51:29;;;;;;;3.38;1.45;;;;;;;;;;5115337;28;20039;-72
2021/08/20 03:54:14;;;;;;;3.75;1.38;;;;;;;;;;5103543;28;20043;-71
2021/08/20 03:57:00;;;;;;;1.35;1.08;;;;;;;;;;5111682;28;20031;-72
2021/08/20 03:59:45;;;;;;;3.85;1.45;;;;;;;;;;5099966;28;20372;-72
2021/08/20 04:02:33;;;;;;;5.03;1.33;;;;;;;;;;5097689;28;20028;-71
2021/08/20 04:05:20;;;;;;;5.90;0.98;;;;;;;;;;5122167;27;20375;-72
2021/08/20 04:08:11;;;;;;;2.58;1.58;;;;;;;;;;5119977;28;20379;-72
2021/08/20 04:11:16;;;;;;;3.47;1.58;;;;;;;;;;5116149;27;20035;-72
2021/08/20 04:14:08;;;;;;;3.15;1.42;;;;;;;;;;5100579;28;20032;-71
2021/08/20 04:16:53;;;;;;;1.52;1.20;;;;;;;;;;5102177;28;20031;-71
2021/08/20 04:19:38;;;;;;;3.95;1.65;;;;;;;;;;5100134;28;20031;-72
2021/08/20 04:22:22;;;;;;;2.75;1.67;;;;;;;;;;5117134;27;20031;-72
2021/08/20 04:25:07;;;;;;;3.00;1.55;;;;;;;;;;5121703;27;20035;-71
2021/08/20 04:28:11;;;;;;;3.45;1.30;;;;;;;;;;5126831;27;20035;-71
2021/08/20 04:31:15;;;;;;;1.65;1.13;;;;;;;;;;5125727;27;20055;-72
2021/08/20 04:34:18;;;;;;;4.05;1.33;;;;;;;;;;5106363;27;20039;-72
2021/08/20 04:37:19;;;;;;;5.25;2.15;;;;;;;;;;5115096;27;20035;-72
2021/08/20 04:40:14;;;;;;;5.45;1.23;;;;;;;;;;5102085;28;20035;-71
2021/08/20 04:43:19;;;;;;;1.83;1.25;;;;;;;;;;5102401;27;20495;-71
2021/08/20 04:46:20;;;;;;;3.15;1.48;;;;;;;;;;5100871;28;20035;-72
2021/08/20 04:49:24;;;;;;;2.50;1.40;;;;;;;;;;5111779;27;20031;-72
2021/08/20 04:52:41;;;;;;;3.97;1.83;;;;;;;;;;5110036;27;20032;-72
2021/08/20 04:55:40;;;;;;;2.92;1.40;;;;;;;;;;5103298;28;20031;-72
2021/08/20 04:58:25;;;;;;;5.78;1.80;;;;;;;;;;5099487;28;20040;-72
2021/08/20 05:01:11;;;;;;;4.43;1.02;;;;;;;;;;5113203;28;20036;-72
2021/08/20 05:03:55;;;;;;;6.43;1.35;;;;;;;;;;5110427;27;20375;-72
2021/08/20 05:06:40;;;;;;;1.98;1.13;;;;;;;;;;5114208;28;20044;-72
2021/08/20 05:09:25;;;;;;;2.80;1.58;;;;;;;;;;5115452;27;20039;-72
2021/08/20 05:12:09;;;;;;;5.22;1.60;;;;;;;;;;5102782;28;20394;-72
2021/08/20 05:14:54;;;;;;;9.50;1.90;;;;;;;;;;5125512;27;20035;-72
2021/08/20 05:17:38;;;;;;;9.80;1.75;;;;;;;;;;5098824;28;20040;-72
2021/08/20 05:20:24;;;;;;;8.05;2.50;;;;;;;;;;5113324;27;20031;-71
2021/08/20 05:23:08;;;;;;;2.85;1.50;;;;;;;;;;5099114;27;20032;-72
2021/08/20 05:25:53;;;;;;;9.52;1.50;;;;;;;;;;5124018;27;20036;-72
2021/08/20 05:28:37;;;;;;;6.97;2.38;;;;;;;;;;5113177;27;20039;-72
2021/08/20 05:31:21;;;;;;;8.93;2.05;;;;;;;;;;5126023;27;20039;-71
2021/08/20 05:34:05;;;;;;;7.68;2.08;;;;;;;;;;5131595;27;20031;-72
2021/08/20 05:36:52;;;;;;;11.20;2.13;;;;;;;;;;5118166;27;20046;-72
2021/08/20 05:39:36;;;;;;;5.75;1.88;;;;;;;;;;5131519;27;20036;-72
2021/08/20 05:42:21;;;;;;;9.18;2.15;;;;;;;;;;5132926;27;20039;-71
2021/08/20 05:45:06;;;;;;;6.68;1.40;;;;;;;;;;5132167;27;20027;-71
2021/08/20 05:47:51;;;;;;;7.35;2.15;;;;;;;;;;5130295;27;20035;-71
2021/08/20 05:50:35;;;;;;;5.45;1.67;;;;;;;;;;5102022;27;20027;-71
2021/08/20 05:53:19;;;;;;;5.70;1.27;;;;;;;;;;5131574;27;20069;-71
2021/08/20 05:56:04;;;;;;;5.07;1.70;;;;;;;;;;5131572;27;20486;-71
2021/08/20 05:58:51;;;;;;;5.43;1.35;;;;;;;;;;5117315;27;20491;-71
2021/08/20 06:01:36;;;;;;;10.60;1.77;;;;;;;;;;5115252;27;20498;-71
2021/08/20 06:04:21;;;;;;;8.80;1.85;;;;;;;;;;5114581;27;20502;-70
2021/08/20 06:07:07;;;;;;;8.80;1.95;;;;;;;;;;5119987;27;20031;-70
2021/08/20 06:09:51;;;;;;;7.75;2.15;;;;;;;;;;5118373;27;20035;-70
2021/08/20 06:12:36;;;;;;;3.22;1.77;;;;;;;;;;5115032;27;20384;-70
2021/08/20 06:15:20;;;;;;;;;;;;;;;;;;5111522;27;20034;-70
2021/08/20 06:18:05;;;;;;;6.85;1.90;;;;;;;;;;5129661;27;20278;-69
2021/08/20 06:20:49;;;;;;;6.68;1.77;;;;;;;;;;5115786;27;20031;-70
2021/08/20 06:23:34;;;;;;;5.78;2.47;;;;;;;;;;5117421;27;20035;-70
2021/08/20 06:26:20;;;;;;;8.18;2.00;;;;;;;;;;5129455;27;20475;-71
2021/08/20 06:29:04;;;;;;;6.03;1.50;;;;;;;;;;5121615;27;20039;-71
2021/08/20 06:31:49;;;;;;;4.60;1.60;;;;;;;;;;5119992;27;20031;-71
2021/08/20 06:34:34;;;;;;;8.57;1.70;;;;;;;;;;5115757;27;20035;-71
2021/08/20 06:37:19;;;;;;;7.20;1.65;;;;;;;;;;5127277;27;20031;-71
2021/08/20 06:40:04;;;;;;;4.72;1.35;;;;;;;;;;5112627;28;20035;-71
2021/08/20 06:42:48;;;;;;;2.88;1.33;;;;;;;;;;5110188;27;20031;-71
2021/08/20 06:45:33;;;;;;;5.68;2.33;;;;;;;;;;5106853;27;20035;-70
2021/08/20 06:48:19;;;;;;;4.28;1.70;;;;;;;;;;5126617;27;20039;-70
2021/08/20 06:51:04;;;;;;;3.38;1.40;;;;;;;;;;5127179;27;20031;-70
2021/08/20 06:53:48;;;;;;;3.05;1.50;;;;;;;;;;5111618;28;20039;-70
2021/08/20 06:56:32;;;;;;;7.28;1.70;;;;;;;;;;5131138;27;20034;-71
2021/08/20 06:59:17;;;;;;;3.75;1.55;;;;;;;;;;5130972;28;20039;-69
2021/08/20 07:02:02;;;;;;;6.45;1.45;;;;;;;;;;5127647;28;20031;-71
2021/08/20 07:04:49;;;;;;;10.35;1.55;;;;;;;;;;5121798;28;20043;-69
2021/08/20 07:07:34;;;;;;;7.80;1.80;;;;;;;;;;5124229;28;20039;-71
2021/08/20 07:10:18;;;;;;;;;;;;;;;;;;5127954;28;20379;-71
2021/08/20 07:13:03;;;;;;;4.10;1.33;;;;;;;;;;5114423;28;19915;-72
2021/08/20 07:15:47;;;;;;;4.38;1.73;;;;;;;;;;5111414;27;20479;-71
2021/08/20 07:18:31;;;;;;;6.45;1.25;;;;;;;;;;5119525;28;20039;-71
2021/08/20 07:21:16;;;;;;;;;;;;;;;;;;5120686;27;20027;-71
2021/08/20 07:24:00;;;;;;;18.10;1.85;;;;;;;;;;5116947;28;19919;-71
2021/08/20 07:26:44;;;;;;;;;;;;;;;;;;5132963;28;20066;-71
2021/08/20 07:29:29;;;;;;;5.82;1.83;;;;;;;;;;5111930;28;19922;-71
2021/08/20 07:32:13;;;;;;;6.93;1.58;;;;;;;;;;5118634;28;20039;-71
2021/08/20 07:34:58;;;;;;;3.70;1.35;;;;;;;;;;5127899;28;20486;-70
2021/08/20 07:37:42;;;;;;;2.63;1.45;;;;;;;;;;5103579;28;20035;-71
2021/08/20 07:40:26;;;;;;;3.42;2.35;;;;;;;;;;5122307;27;20028;-71
2021/08/20 07:43:11;;;;;;;4.75;1.15;;;;;;;;;;5111897;27;20031;-70
2021/08/20 07:45:56;;;;;;;5.47;1.30;;;;;;;;;;5109464;28;20379;-71
2021/08/20 07:48:41;;;;;;;3.33;1.35;;;;;;;;;;5111913;27;20035;-71
2021/08/20 07:51:25;;;;;;;;;;;;;;;;;;5121190;27;20331;-71
2021/08/20 07:54:10;;;;;;;4.07;1.50;;;;;;;;;;5108791;27;19923;-71
2021/08/20 07:56:54;;;;;;;5.05;1.65;;;;;;;;;;5108429;27;20072;-71
2021/08/20 07:59:39;;;;;;;6.45;1.58;;;;;;;;;;5120434;27;20039;-71
2021/08/20 08:02:23;;;;;;;;;;;;;;;;;;5102240;27;20023;-70
2021/08/20 08:05:07;;;;;;;5.43;1.25;;;;;;;;;;5132063;27;19918;-71
2021/08/20 08:07:53;;;;;;;3.40;1.42;;;;;;;;;;5109947;27;20036;-71
2021/08/20 08:10:37;;;;;;;4.18;1.60;;;;;;;;;;5104599;27;20040;-71
2021/08/20 08:13:21;;;;;;;;;;;;;;;;;;5141296;27;20039;-71
2021/08/20 08:16:06;;;;;;;1.93;1.13;;;;;;;;;;5128353;27;19985;-71
2021/08/20 08:18:50;;;;;;;3.45;1.80;;;;;;;;;;5132183;27;20447;-71
2021/08/20 08:21:34;;;;;;;3.65;1.90;;;;;;;;;;5116542;27;20039;-71
2021/08/20 08:24:20;;;;;;;3.75;1.77;;;;;;;;;;5131162;27;20503;-70
2021/08/20 08:27:04;;;;;;;7.05;1.60;;;;;;;;;;5149348;27;20046;-71
2021/08/20 08:29:49;;;;;;;4.50;1.30;;;;;;;;;;5128308;27;20451;-71
2021/08/20 08:32:34;;;;;;;10.85;1.70;;;;;;;;;;5131729;27;20039;-71
2021/08/20 08:35:18;;;;;;;;;;;;;;;;;;5107989;27;20042;-71
2021/08/20 08:38:07;;;;;;;8.88;2.08;;;;;;;;;;5116314;27;19940;-71
2021/08/20 08:40:52;;;;;;;6.55;1.60;;;;;;;;;;5111046;27;20044;-71
2021/08/20 08:43:37;;;;;;;9.05;2.00;;;;;;;;;;5118382;27;20035;-71
2021/08/20 08:46:21;;;;;;;;;;;;;;;;;;5095562;27;20028;-71
2021/08/20 08:49:06;;;;;;;;;;;;;;;;;;5115092;27;19934;-71
2021/08/20 08:51:50;;;;;;;2.97;1.50;;;;;;;;;;5111548;27;19923;-71
2021/08/20 08:54:34;;;;;;;2.08;1.13;;;;;;;;;;5128279;27;20034;-71
2021/08/20 08:57:19;;;;;;;;;;;;;;;;;;5132636;27;20047;-71
2021/08/20 09:00:04;;;;;;;2.33;1.20;;;;;;;;;;5117430;27;19934;-71
2021/08/20 09:02:48;;;;;;;3.45;1.23;;;;;;;;;;5117042;27;20297;-71
2021/08/20 09:05:43;;;;;;;2.35;1.13;;;;;;;;;;5120077;27;20035;-71
2021/08/20 09:08:28;;;;;;;4.38;1.38;;;;;;;;;;5110851;28;20036;-71
2021/08/20 09:11:24;;;;;;;1.73;1.35;;;;;;;;;;5117007;27;20039;-71
2021/08/20 09:14:09;;;;;;;5.57;1.92;;;;;;;;;;5115901;27;20043;-71
2021/08/20 09:16:54;;;;;;;2.63;1.40;;;;;;;;;;5116910;27;20039;-71
2021/08/20 09:19:39;;;;;;;5.68;1.10;;;;;;;;;;5097822;27;20047;-71
2021/08/20 09:22:33;;;;;;;4.75;1.20;;;;;;;;;;5114548;27;20032;-71
2021/08/20 09:25:27;;;;;;;5.80;1.42;;;;;;;;;;5116084;27;20040;-71
2021/08/20 09:28:15;;;;;;;3.53;1.40;;;;;;;;;;5122598;27;20513;-71
2021/08/20 09:31:22;;;;;;;2.65;1.08;;;;;;;;;;5112480;27;20039;-71
2021/08/20 09:34:06;;;;;;;3.35;1.27;;;;;;;;;;5103231;27;20134;-71
2021/08/20 09:36:50;;;;;;;;;;;;;;;;;;5118939;27;20035;-70
2021/08/20 09:39:41;;;;;;;3.08;1.30;;;;;;;;;;5112549;27;19939;-71
2021/08/20 09:42:27;;;;;;;4.45;1.55;;;;;;;;;;5115936;27;20035;-71
2021/08/20 09:45:19;;;;;;;3.13;1.40;;;;;;;;;;5103669;27;20039;-71
2021/08/20 09:48:05;;;;;;;7.03;1.30;;;;;;;;;;5116747;27;20036;-69
2021/08/20 09:50:50;;;;;;;3.58;1.05;;;;;;;;;;5115228;27;20043;-71
2021/08/20 09:53:35;;;;;;;4.68;1.33;;;;;;;;;;5122377;27;20395;-69
2021/08/20 09:56:19;;;;;;;3.85;1.38;;;;;;;;;;5121214;27;20055;-71
2021/08/20 09:59:05;;;;;;;2.22;1.45;;;;;;;;;;5125056;27;20504;-70
2021/08/20 10:01:50;;;;;;;7.00;1.38;;;;;;;;;;5119138;27;20031;-71
2021/08/20 10:04:37;;;;;;;4.40;1.10;;;;;;;;;;5110150;27;20027;-70
2021/08/20 10:07:26;;;;;;;3.00;1.20;;;;;;;;;;5124027;27;20035;-71
2021/08/20 10:10:10;;;;;;;2.28;1.33;;;;;;;;;;5123894;27;20035;-70
2021/08/20 10:12:56;;;;;;;7.63;1.63;;;;;;;;;;5109900;27;20035;-71
2021/08/20 10:15:41;;;;;;;3.05;1.58;;;;;;;;;;5118576;27;20031;-70
2021/08/20 10:18:25;;;;;;;2.15;1.17;;;;;;;;;;5131348;27;20039;-71
2021/08/20 10:21:11;;;;;;;4.70;1.20;;;;;;;;;;5131425;27;20415;-71
2021/08/20 10:23:56;;;;;;;4.72;1.85;;;;;;;;;;5107881;27;20031;-70
2021/08/20 10:26:44;;;;;;;6.90;1.48;;;;;;;;;;5130360;27;20036;-69
2021/08/20 10:29:30;;;;;;;3.83;1.30;;;;;;;;;;5115455;27;20043;-71
2021/08/20 10:32:16;;;;;;;4.63;1.30;;;;;;;;;;5119403;27;20043;-71
2021/08/20 10:35:01;;;;;;;3.53;1.20;;;;;;;;;;5130533;27;20047;-71
2021/08/20 10:37:45;;;;;;;14.23;2.47;;;;;;;;;;5125626;27;20027;-70
2021/08/20 10:40:29;;;;;;;5.95;1.23;;;;;;;;;;5127486;27;20491;-69
2021/08/20 10:43:32;;;;;;;5.60;1.42;;;;;;;;;;5128433;27;20411;-71
2021/08/20 10:46:32;;;;;;;14.95;1.80;;;;;;;;;;5109714;28;20047;-71
2021/08/20 10:49:21;;;;;;;10.38;1.85;;;;;;;;;;5128771;27;20030;-71
2021/08/20 10:52:06;;;;;;;4.22;1.20;;;;;;;;;;5113793;27;20042;-70
2021/08/20 10:54:53;;;;;;;1.83;1.20;;;;;;;;;;5123851;27;20039;-72
2021/08/20 10:57:39;;;;;;;1.83;1.02;;;;;;;;;;5130857;27;20399;-69
2021/08/20 11:00:24;;;;;;;3.95;2.55;;;;;;;;;;5113526;28;20031;-69
2021/08/20 11:03:09;;;;;;;5.20;1.50;;;;;;;;;;5125107;28;20480;-69
2021/08/20 11:05:54;;;;;;;4.80;1.20;;;;;;;;;;5114272;27;20482;-71
2021/08/20 11:08:38;;;;;;;2.30;1.33;;;;;;;;;;5124637;28;20043;-68
2021/08/20 11:11:42;;;;;;;1.85;0.95;;;;;;;;;;5129617;28;20039;-70
2021/08/20 11:14:32;;;;;;;3.45;1.08;;;;;;;;;;5125863;28;20031;-69
2021/08/20 11:17:37;;;;;;;3.75;1.27;;;;;;;;;;5130363;28;20383;-71
2021/08/20 11:20:21;;;;;;;3.10;1.10;;;;;;;;;;5118214;27;20387;-70
2021/08/20 11:23:09;;;;;;;2.35;1.30;;;;;;;;;;5132391;27;20487;-71
2021/08/20 11:25:57;;;;;;;1.05;0.93;;;;;;;;;;5135292;27;20031;-71
2021/08/20 11:28:43;;;;;;;1.60;1.00;;;;;;;;;;5125167;27;20035;-69
2021/08/20 11:31:27;;;;;;;1.70;1.10;;;;;;;;;;5112841;27;20031;-70
2021/08/20 11:34:12;;;;;;;1.95;1.23;;;;;;;;;;5123486;27;20040;-71
2021/08/20 11:37:00;;;;;;;2.17;1.25;;;;;;;;;;5130646;27;20514;-73
2021/08/20 11:40:05;;;;;;;1.50;0.90;;;;;;;;;;5142259;27;20031;-72
2021/08/20 11:43:10;;;;;;;3.28;1.17;;;;;;;;;;5129691;27;20035;-72
2021/08/20 11:46:08;;;;;;;4.32;1.20;;;;;;;;;;5105773;27;20019;-72
2021/08/20 11:48:59;;;;;;;2.00;1.30;;;;;;;;;;5127202;27;20038;-72
2021/08/20 11:51:44;;;;;;;1.90;1.30;;;;;;;;;;5127359;27;20039;-72
2021/08/20 11:54:37;;;;;;;2.40;1.15;;;;;;;;;;5133475;27;20039;-72
2021/08/20 11:57:35;;;;;;;4.28;1.40;;;;;;;;;;5132179;27;20730;-71
2021/08/20 12:00:19;;;;;;;2.80;1.60;;;;;;;;;;5125317;27;20031;-72
2021/08/20 12:03:08;;;;;;;6.28;1.55;;;;;;;;;;5135305;27;20056;-72
2021/08/20 12:06:09;;;;;;;1.65;1.17;;;;;;;;;;5131454;27;20031;-72
2021/08/20 12:08:58;;;;;;;3.75;1.00;;;;;;;;;;5131242;27;20043;-73
2021/08/20 12:11:43;;;;;;;2.75;0.95;;;;;;;;;;5136120;27;20035;-74
2021/08/20 12:14:28;;;;;;;2.33;1.30;;;;;;;;;;5135279;27;20490;-72
2021/08/20 12:17:20;;;;;;;4.03;1.33;;;;;;;;;;5129012;27;20031;-72
2021/08/20 12:20:21;;;;;;;3.35;1.20;;;;;;;;;;5125474;27;20027;-73
2021/08/20 12:23:06;;;;;;;2.30;0.93;;;;;;;;;;5123778;27;20639;-71
2021/08/20 12:25:51;;;;;;;1.73;1.10;;;;;;;;;;5129277;27;20031;-74
2021/08/20 12:28:40;;;;;;;2.08;1.15;;;;;;;;;;5119927;27;20035;-72
2021/08/20 12:31:26;;;;;;;1.70;0.93;;;;;;;;;;5134536;27;20043;-74
2021/08/20 12:34:11;;;;;;;1.92;1.13;;;;;;;;;;5128368;27;20372;-72
2021/08/20 12:36:56;;;;;;;2.95;0.95;;;;;;;;;;5135188;27;20047;-73
2021/08/20 12:39:43;;;;;;;1.65;1.00;;;;;;;;;;5133703;27;20035;-72
2021/08/20 12:42:27;;;;;;;1.38;1.02;;;;;;;;;;5108773;27;20387;-71
2021/08/20 12:45:16;;;;;;;1.52;1.00;;;;;;;;;;5135132;27;20027;-73
2021/08/20 12:48:03;;;;;;;0.95;0.85;;;;;;;;;;5130555;27;20043;-72
2021/08/20 12:50:56;;;;;;;1.92;1.20;;;;;;;;;;5132641;27;20491;-72
2021/08/20 12:53:41;;;;;;;1.33;1.13;;;;;;;;;;5127417;27;20039;-74
2021/08/20 12:56:30;;;;;;;4.80;1.20;;;;;;;;;;5125679;27;20039;-72
2021/08/20 12:59:17;;;;;;;2.20;1.13;;;;;;;;;;5126636;27;20057;-72
2021/08/20 13:02:01;;;;;;;7.20;1.30;;;;;;;;;;5122396;27;20561;-72
2021/08/20 13:04:45;;;;;;;2.72;1.23;;;;;;;;;;5128206;27;20043;-73
2021/08/20 13:07:29;;;;;;;5.50;2.03;;;;;;;;;;5126686;27;20503;-74
2021/08/20 13:10:14;;;;;;;1.73;1.40;;;;;;;;;;5109822;27;20486;-73
2021/08/20 13:12:58;;;;;;;2.17;0.90;;;;;;;;;;5123996;27;20032;-73
2021/08/20 13:15:43;;;;;;;1.73;1.23;;;;;;;;;;5125671;27;20051;-74
2021/08/20 13:18:28;;;;;;;2.00;1.05;;;;;;;;;;5120863;27;20498;-72
2021/08/20 13:21:19;;;;;;;1.65;0.90;;;;;;;;;;5125842;27;20039;-72
2021/08/20 13:24:04;;;;;;;1.60;0.93;;;;;;;;;;5118491;27;20035;-74
2021/08/20 13:26:48;;;;;;;4.53;1.52;;;;;;;;;;5124953;27;20039;-74
2021/08/20 13:29:32;;;;;;;1.85;1.20;;;;;;;;;;5132805;27;20035;-73
2021/08/20 13:32:16;;;;;;;4.63;1.63;;;;;;;;;;5132798;27;20039;-73
2021/08/20 13:35:01;;;;;;;1.85;1.02;;;;;;;;;;5124361;27;20511;-73
2021/08/20 13:37:49;;;;;;;4.18;1.58;;;;;;;;;;5126802;27;20043;-73
2021/08/20 13:40:34;;;;;;;2.05;1.23;;;;;;;;;;5124758;27;20031;-74
2021/08/20 13:43:19;;;;;;;1.40;1.20;;;;;;;;;;5127099;27;20035;-74
2021/08/20 13:46:04;;;;;;;7.38;1.27;;;;;;;;;;5128035;27;20042;-74
2021/08/20 13:48:51;;;;;;;5.75;1.10;;;;;;;;;;5128505;27;20043;-73
2021/08/20 13:51:36;;;;;;;3.97;1.23;;;;;;;;;;5113575;27;20031;-73
2021/08/20 13:54:21;;;;;;;5.22;1.65;;;;;;;;;;5113133;27;20039;-74
2021/08/20 13:57:05;;;;;;;2.03;1.27;;;;;;;;;;5110194;27;20035;-73
2021/08/20 13:59:50;;;;;;;4.93;1.20;;;;;;;;;;5127746;27;20043;-73
2021/08/20 14:02:35;;;;;;;3.60;1.27;;;;;;;;;;5112858;27;20072;-74
2021/08/20 14:05:39;;;;;;;2.15;1.13;;;;;;;;;;5122154;27;20039;-73
2021/08/20 14:08:24;;;;;;;2.58;0.80;;;;;;;;;;5109629;27;20035;-74
2021/08/20 14:11:08;;;;;;;3.88;1.20;;;;;;;;;;5127130;27;20047;-73
2021/08/20 14:13:53;;;;;;;2.85;1.40;;;;;;;;;;5116747;27;20027;-74
2021/08/20 14:16:37;;;;;;;6.80;1.65;;;;;;;;;;5115568;27;20035;-73
2021/08/20 14:19:22;;;;;;;3.35;1.50;;;;;;;;;;5129977;27;20040;-73
2021/08/20 14:22:06;;;;;;;3.50;1.70;;;;;;;;;;5131893;27;20039;-74
2021/08/20 14:24:50;;;;;;;7.18;1.50;;;;;;;;;;5129669;27;20031;-71
2021/08/20 14:27:35;;;;;;;4.10;1.17;;;;;;;;;;5131963;27;20035;-73
2021/08/20 14:30:19;;;;;;;5.07;1.65;;;;;;;;;;5122294;27;20491;-73
2021/08/20 14:33:04;;;;;;;1.88;1.45;;;;;;;;;;5131112;27;20039;-73
2021/08/20 14:35:49;;;;;;;4.30;1.17;;;;;;;;;;5116326;27;20369;-73
2021/08/20 14:38:34;;;;;;;2.95;1.40;;;;;;;;;;5118126;27;20031;-73
2021/08/20 14:41:18;;;;;;;1.77;1.25;;;;;;;;;;5129868;27;20023;-72
2021/08/20 14:44:03;;;;;;;1.55;1.20;;;;;;;;;;5132878;27;20031;-72
2021/08/20 14:46:48;;;;;;;2.17;1.38;;;;;;;;;;5132434;27;20368;-74
2021/08/20 14:49:35;;;;;;;7.45;1.60;;;;;;;;;;5131492;27;20035;-74
2021/08/20 14:52:19;;;;;;;2.92;1.40;;;;;;;;;;5127974;27;20031;-73
2021/08/20 14:55:04;;;;;;;4.20;1.20;;;;;;;;;;5118736;27;20043;-74
2021/08/20 14:57:49;;;;;;;6.05;1.50;;;;;;;;;;5131945;27;20035;-73
2021/08/20 15:00:34;;;;;;;1.38;1.10;;;;;;;;;;5131883;27;20023;-72
2021/08/20 15:03:19;;;;;;;3.50;1.52;;;;;;;;;;5127994;28;20035;-74
2021/08/20 15:06:03;;;;;;;4.70;1.60;;;;;;;;;;5129310;28;20486;-72
2021/08/20 15:08:48;;;;;;;4.55;1.60;;;;;;;;;;5126272;27;20035;-72
2021/08/20 15:11:32;;;;;;;1.65;1.25;;;;;;;;;;5111272;28;20043;-73
2021/08/20 15:14:16;;;;;;;4.13;1.67;;;;;;;;;;5122483;27;20035;-72
2021/08/20 15:17:00;;;;;;;3.20;1.50;;;;;;;;;;5120876;28;20109;-73
2021/08/20 15:19:45;;;;;;;3.70;1.58;;;;;;;;;;5114534;28;20043;-72
2021/08/20 15:22:29;;;;;;;7.18;1.48;;;;;;;;;;5127938;28;20031;-72
2021/08/20 15:25:13;;;;;;;5.10;1.15;;;;;;;;;;5131145;28;20031;-72
2021/08/20 15:27:59;;;;;;;3.92;1.70;;;;;;;;;;5128301;28;20039;-73
2021/08/20 15:30:45;;;;;;;2.85;1.52;;;;;;;;;;5110247;27;20031;-74
2021/08/20 15:33:31;;;;;;;1.70;1.20;;;;;;;;;;5121827;27;20035;-74
2021/08/20 15:36:18;;;;;;;5.43;1.17;;;;;;;;;;5125551;28;20027;-74
2021/08/20 15:39:03;;;;;;;3.33;1.55;;;;;;;;;;5130507;28;20035;-72
2021/08/20 15:41:47;;;;;;;4.22;1.55;;;;;;;;;;5126499;28;20032;-73
2021/08/20 15:44:31;;;;;;;3.50;1.67;;;;;;;;;;5127514;28;20035;-74
2021/08/20 15:47:17;;;;;;;5.53;1.50;;;;;;;;;;5125636;28;20028;-73
2021/08/20 15:50:02;;;;;;;3.30;1.20;;;;;;;;;;5131120;28;20035;-71
2021/08/20 15:52:47;;;;;;;4.25;1.98;;;;;;;;;;5113113;28;20031;-72
2021/08/20 15:55:32;;;;;;;3.55;1.40;;;;;;;;;;5117490;27;20039;-73
2021/08/20 15:58:17;;;;;;;2.63;1.33;;;;;;;;;;5126414;28;20035;-72
2021/08/20 16:01:01;;;;;;;6.70;1.77;;;;;;;;;;5129663;28;20031;-73
2021/08/20 16:03:46;;;;;;;8.85;1.67;;;;;;;;;;5128654;28;20032;-74
2021/08/20 16:06:30;;;;;;;3.10;1.30;;;;;;;;;;5118980;27;20404;-72
2021/08/20 16:09:15;;;;;;;6.70;1.30;;;;;;;;;;5135246;27;20375;-72
2021/08/20 16:11:59;;;;;;;2.33;1.38;;;;;;;;;;5122181;27;20039;-74
2021/08/20 16:14:43;;;;;;;2.90;1.42;;;;;;;;;;5129209;27;20031;-72
2021/08/20 16:17:28;;;;;;;4.65;1.50;;;;;;;;;;5130758;27;20039;-72
2021/08/20 16:20:14;;;;;;;4.13;1.58;;;;;;;;;;5134077;27;20384;-72
2021/08/20 16:22:59;;;;;;;1.67;1.15;;;;;;;;;;5134997;27;20027;-72
2021/08/20 16:25:43;;;;;;;3.85;1.48;;;;;;;;;;5124065;27;20031;-72
2021/08/20 16:28:28;;;;;;;1.95;1.20;;;;;;;;;;5130459;27;20031;-72
2021/08/20 16:31:13;;;;;;;2.63;1.33;;;;;;;;;;5130637;27;20039;-75
2021/08/20 16:33:58;;;;;;;10.13;1.80;;;;;;;;;;5131795;27;20039;-72
2021/08/20 16:36:43;;;;;;;2.58;1.63;;;;;;;;;;5129859;27;20042;-72
2021/08/20 16:39:28;;;;;;;3.58;1.55;;;;;;;;;;5133200;27;20039;-73
2021/08/20 16:42:13;;;;;;;6.22;1.85;;;;;;;;;;5132714;27;20035;-73
2021/08/20 16:44:59;;;;;;;2.25;1.55;;;;;;;;;;5126415;27;20035;-72